Time;durP1;ratioP1;P1;durP2;ratioP2;P2;SDS_P1;SDS_P2;PMS_P1;PMS_P2;Temp;Humidity;BMP_temperature;BMP_pressure;BME280_temperature;BME280_humidity;BME280_pressure;Samples;Min_cycle;Max_cycle;Signal;HPM_P1;HPM_P2
2021/10/22 00:01:39;;;;;;;;;;;;;;;12.81;63.32;97668.56;5046108;28;20302;-75
2021/10/22 00:04:04;;;;;;;;;;;;;;;12.83;63.13;97658.06;5019350;28;20381;-76
2021/10/22 00:06:30;;;;;;;;;;;;;;;12.83;63.02;97659.81;5013857;28;20023;-74
2021/10/22 00:08:55;;;;;;;;;;;;;;;12.81;63.06;97646.84;5001341;28;19921;-75
2021/10/22 00:11:23;;;;;;;;;;;;;;;12.79;63.09;97654.78;5015027;28;19933;-74
2021/10/22 00:13:49;;;;;;;;;;;;;;;12.78;62.83;97654.84;5033704;28;19928;-76
2021/10/22 00:16:14;;;;;;;;;;;;;;;12.79;62.95;97651.31;5017883;28;20054;-76
2021/10/22 00:18:40;;;;;;;;;;;;;;;12.78;62.52;97662.66;5018421;28;21367;-75
2021/10/22 00:21:06;;;;;;;;;;;;;;;12.78;62.75;97666.13;5017208;28;19928;-76
2021/10/22 00:23:32;;;;;;;;;;;;;;;12.79;62.45;97677.41;5017532;28;19971;-75
2021/10/22 00:25:57;;;;;;;;;;;;;;;12.78;62.40;97670.50;5017476;28;20020;-75
2021/10/22 00:28:23;;;;;;;;;;;;;;;12.75;62.27;97673.25;4999311;28;19972;-75
2021/10/22 00:30:48;;;;;;;;;;;;;;;12.77;62.56;97667.06;5017980;28;20028;-75
2021/10/22 00:33:14;;;;;;;;;;;;;;;12.78;62.22;97654.84;5016794;28;19925;-76
2021/10/22 00:35:41;;;;;;;;;;;;;;;12.79;62.29;97635.66;5016945;28;19925;-75
2021/10/22 00:38:06;;;;;;;;;;;;;;;12.80;62.44;97637.34;5016440;28;19927;-75
2021/10/22 00:40:33;;;;;;;;;;;;;;;12.80;62.21;97653.81;5017548;28;20278;-75
2021/10/22 00:42:59;;;;;;;;;;;;;;;12.81;62.04;97642.47;5015698;28;19927;-76
2021/10/22 00:45:25;;;;;;;;;;;;;;;12.79;62.10;97661.75;5016390;28;19932;-75
2021/10/22 00:47:50;;;;;;;;;;;;;;;12.77;62.08;97666.19;5017409;28;19978;-75
2021/10/22 00:50:16;;;;;;;;;;;;;;;12.77;62.17;97685.31;5017223;28;19928;-75
2021/10/22 00:52:44;;;;;;;;;;;;;;;12.78;62.01;97683.53;5015705;28;19968;-75
2021/10/22 00:55:11;;;;;;;;;;;;;;;12.76;61.92;97673.19;5016840;28;20005;-75
2021/10/22 00:57:40;;;;;;;;;;;;;;;12.76;61.89;97675.81;5016640;28;20326;-74
2021/10/22 01:00:06;;;;;;;;;;;;;;;12.78;61.76;97667.88;5016432;28;19928;-76
2021/10/22 01:02:37;;;;;;;;;;;;;;;12.78;61.89;97689.63;5032310;28;19960;-75
2021/10/22 01:05:06;;;;;;;;;;;;;;;12.80;61.66;97669.47;5016154;28;19921;-75
2021/10/22 01:07:31;;;;;;;;;;;;;;;12.80;61.72;97656.44;5032047;28;20024;-75
2021/10/22 01:09:57;;;;;;;;;;;;;;;12.80;61.76;97643.38;5015710;28;20023;-75
2021/10/22 01:12:22;;;;;;;;;;;;;;;12.82;61.63;97638.09;5014088;28;19979;-74
2021/10/22 01:14:51;;;;;;;;;;;;;;;12.80;61.55;97658.22;5016995;28;19967;-76
2021/10/22 01:17:29;;;;;;;;;;;;;;;12.78;61.55;97655.69;5014401;28;19944;-74
2021/10/22 01:19:55;;;;;;;;;;;;;;;12.78;61.51;97642.66;5017326;28;19921;-76
2021/10/22 01:22:20;;;;;;;;;;;;;;;12.77;61.39;97646.19;4998421;28;19932;-74
2021/10/22 01:24:47;;;;;;;;;;;;;;;12.77;61.24;97634.88;5014784;28;19921;-75
2021/10/22 01:27:13;;;;;;;;;;;;;;;12.75;61.44;97652.38;5015386;28;19925;-75
2021/10/22 01:29:38;;;;;;;;;;;;;;;12.73;61.50;97654.22;5015809;28;20405;-74
2021/10/22 01:32:04;;;;;;;;;;;;;;;12.71;61.40;97638.66;5015654;28;20711;-75
2021/10/22 01:34:29;;;;;;;;;;;;;;;12.70;61.33;97641.34;5029395;28;19975;-76
2021/10/22 01:36:55;;;;;;;;;;;;;;;12.69;61.44;97639.69;5015869;28;19929;-75
2021/10/22 01:39:21;;;;;;;;;;;;;;;12.68;61.30;97636.22;5010646;28;20021;-75
2021/10/22 01:41:46;;;;;;;;;;;;;;;12.69;61.44;97652.72;5032062;28;19963;-76
2021/10/22 01:44:13;;;;;;;;;;;;;;;12.70;61.29;97651.78;5016303;28;20396;-77
2021/10/22 01:46:38;;;;;;;;;;;;;;;12.68;61.38;97669.31;5013435;28;20415;-77
2021/10/22 01:49:04;;;;;;;;;;;;;;;12.66;61.14;97658.94;4981563;28;19929;-73
2021/10/22 01:51:30;;;;;;;;;;;;;;;12.66;61.29;97664.16;5015482;28;19944;-75
2021/10/22 01:53:55;;;;;;;;;;;;;;;12.65;61.31;97668.53;4998101;28;19921;-75
2021/10/22 01:56:21;;;;;;;;;;;;;;;12.63;61.16;97656.47;5016701;28;21065;-75
2021/10/22 01:58:46;;;;;;;;;;;;;;;12.61;61.18;97672.22;5014155;28;19920;-74
2021/10/22 02:01:12;;;;;;;;;;;;;;;12.60;61.39;97657.47;5014128;28;20007;-74
2021/10/22 02:03:37;;;;;;;;;;;;;;;12.58;61.10;97654.09;5003815;28;19921;-75
2021/10/22 02:06:03;;;;;;;;;;;;;;;12.57;61.37;97657.63;5027876;28;19932;-74
2021/10/22 02:08:28;;;;;;;;;;;;;;;12.56;61.19;97671.59;5023638;28;19932;-74
2021/10/22 02:10:54;;;;;;;;;;;;;;;12.56;61.40;97663.78;5016056;28;19925;-74
2021/10/22 02:13:20;;;;;;;;;;;;;;;12.55;61.48;97672.53;5015868;28;19972;-75
2021/10/22 02:15:45;;;;;;;;;;;;;;;12.54;61.43;97659.56;5015461;28;19983;-75
2021/10/22 02:18:11;;;;;;;;;;;;;;;12.54;61.38;97655.19;5016328;28;20052;-75
2021/10/22 02:20:41;;;;;;;;;;;;;;;12.55;61.34;97645.59;4996984;28;19975;-73
2021/10/22 02:23:06;;;;;;;;;;;;;;;12.56;61.40;97653.34;5014558;28;19921;-75
2021/10/22 02:25:32;;;;;;;;;;;;;;;12.54;61.23;97657.78;5015700;28;19932;-75
2021/10/22 02:27:58;;;;;;;;;;;;;;;12.53;61.30;97648.28;5029729;28;19925;-75
2021/10/22 02:30:23;;;;;;;;;;;;;;;12.54;61.43;97670.00;4997227;28;19928;-74
2021/10/22 02:32:49;;;;;;;;;;;;;;;12.54;61.58;97652.56;5013896;28;19928;-74
2021/10/22 02:35:15;;;;;;;;;;;;;;;12.55;61.43;97662.09;5013087;28;19928;-76
2021/10/22 02:37:42;;;;;;;;;;;;;;;12.56;61.38;97653.34;5016386;28;19925;-74
2021/10/22 02:40:08;;;;;;;;;;;;;;;12.55;61.37;97659.47;5031778;28;20317;-75
2021/10/22 02:42:34;;;;;;;;;;;;;;;12.54;61.27;97657.78;5016278;28;19932;-73
2021/10/22 02:44:59;;;;;;;;;;;;;;;12.54;61.52;97675.22;5032759;28;20261;-75
2021/10/22 02:47:25;;;;;;;;;;;;;;;12.52;61.24;97670.06;5000196;28;20397;-76
2021/10/22 02:49:50;;;;;;;;;;;;;;;12.51;61.26;97678.81;5016795;28;19927;-75
2021/10/22 02:52:16;;;;;;;;;;;;;;;12.52;61.46;97683.09;5016129;28;20311;-76
2021/10/22 02:54:41;;;;;;;;;;;;;;;12.52;61.38;97677.88;5030472;28;20401;-75
2021/10/22 02:57:07;;;;;;;;;;;;;;;12.53;61.38;97666.53;5018145;28;20419;-74
2021/10/22 02:59:33;;;;;;;;;;;;;;;12.54;61.40;97670.84;5016818;28;19925;-75
2021/10/22 03:01:58;;;;;;;;;;;;;;;12.55;61.36;97682.97;5018223;28;19943;-75
2021/10/22 03:04:24;;;;;;;;;;;;;;;12.56;61.30;97673.38;5015690;28;19971;-75
2021/10/22 03:06:49;;;;;;;;;;;;;;;12.57;61.28;97664.63;5015151;28;19925;-76
2021/10/22 03:09:15;;;;;;;;;;;;;;;12.55;61.23;97671.69;5015457;28;19964;-75
2021/10/22 03:11:41;;;;;;;;;;;;;;;12.52;61.45;97659.63;5032759;28;19929;-74
2021/10/22 03:14:06;;;;;;;;;;;;;;;12.52;61.30;97656.19;5015811;28;20381;-74
2021/10/22 03:16:32;;;;;;;;;;;;;;;12.51;61.32;97660.53;5018685;28;20011;-76
2021/10/22 03:18:57;;;;;;;;;;;;;;;12.52;61.44;97661.41;5017760;28;19920;-75
2021/10/22 03:21:23;;;;;;;;;;;;;;;12.49;61.50;97657.16;4999263;28;19921;-74
2021/10/22 03:23:54;;;;;;;;;;;;;;;12.48;61.32;97673.75;5015742;28;19949;-76
2021/10/22 03:26:20;;;;;;;;;;;;;;;12.45;61.47;97647.84;5016081;28;20047;-75
2021/10/22 03:28:45;;;;;;;;;;;;;;;12.43;61.48;97652.28;5016202;28;19953;-76
2021/10/22 03:31:11;;;;;;;;;;;;;;;12.25;61.69;97622.75;5017521;28;19967;-75
2021/10/22 03:33:36;;;;;;;;;;;;;;;12.40;61.48;97652.44;5018056;28;19921;-75
2021/10/22 03:36:03;;;;;;;;;;;;;;;12.41;61.72;97661.94;5015794;28;20455;-76
2021/10/22 03:38:28;;;;;;;;;;;;;;;12.41;61.68;97649.75;5018605;28;20019;-75
2021/10/22 03:40:54;;;;;;;;;;;;;;;12.42;61.71;97658.41;5016053;28;20384;-75
2021/10/22 03:43:19;;;;;;;;;;;;;;;12.40;61.52;97660.25;5018723;28;19925;-76
2021/10/22 03:45:45;;;;;;;;;;;;;;;12.38;61.84;97662.09;5011586;28;19921;-76
2021/10/22 03:48:11;;;;;;;;;;;;;;;12.35;61.48;97650.91;5017477;28;19933;-74
2021/10/22 03:50:37;;;;;;;;;;;;;;;12.35;62.00;97655.28;5016389;28;19956;-76
2021/10/22 03:53:03;;;;;;;;;;;;;;;12.34;61.98;97643.16;5015721;28;20042;-75
2021/10/22 03:55:34;;;;;;;;;;;;;;;12.31;61.63;97654.56;5032664;28;20385;-75
2021/10/22 03:58:01;;;;;;;;;;;;;;;12.27;61.67;97655.66;5016681;28;19972;-75
2021/10/22 04:00:26;;;;;;;;;;;;;;;12.25;61.83;97651.44;5016671;28;20599;-75
2021/10/22 04:02:52;;;;;;;;;;;;;;;12.24;61.88;97644.53;5016998;28;19921;-75
2021/10/22 04:05:17;;;;;;;;;;;;;;;12.22;61.99;97647.22;5017339;28;19928;-76
2021/10/22 04:07:43;;;;;;;;;;;;;;;12.21;61.95;97653.38;5000554;28;19931;-74
2021/10/22 04:10:09;;;;;;;;;;;;;;;12.21;62.03;97661.19;5006498;28;20084;-75
2021/10/22 04:12:34;;;;;;;;;;;;;;;12.19;62.04;97652.59;5018618;28;19925;-75
2021/10/22 04:15:00;;;;;;;;;;;;;;;12.18;62.07;97663.94;5008194;28;20361;-75
2021/10/22 04:17:28;;;;;;;;;;;;;;;12.15;62.34;97664.09;5018917;28;19921;-76
2021/10/22 04:19:54;;;;;;;;;;;;;;;12.13;62.36;97664.19;4999951;28;20389;-75
2021/10/22 04:22:20;;;;;;;;;;;;;;;12.15;62.33;97664.09;5018412;28;20011;-74
2021/10/22 04:24:45;;;;;;;;;;;;;;;12.17;62.31;97670.06;5016847;28;19978;-75
2021/10/22 04:27:11;;;;;;;;;;;;;;;12.18;62.23;97666.56;5016002;28;19925;-76
2021/10/22 04:29:37;;;;;;;;;;;;;;;12.18;62.30;97661.34;5017794;28;19932;-77
2021/10/22 04:32:08;;;;;;;;;;;;;;;12.21;62.23;97666.41;5015517;28;20023;-76
2021/10/22 04:34:43;;;;;;;;;;;;;;;12.18;62.15;97659.56;4999565;28;19932;-76
2021/10/22 04:37:27;;;;;;;;;;;;;;;12.18;62.34;97658.72;4999014;28;19928;-75
2021/10/22 04:42:50;;;;;;;;;;;;;;;12.21;62.32;97655.97;4991266;28;20396;-76
2021/10/22 04:45:20;;;;;;;;;;;;;;;12.23;62.20;97655.88;5020527;28;19929;-74
2021/10/22 04:47:48;;;;;;;;;;;;;;;12.19;62.39;97661.25;5016739;28;19937;-77
2021/10/22 04:50:14;;;;;;;;;;;;;;;12.18;62.18;97662.16;5015444;28;19921;-76
2021/10/22 04:52:40;;;;;;;;;;;;;;;12.19;62.50;97668.25;5017841;28;19928;-76
2021/10/22 04:55:06;;;;;;;;;;;;;;;12.20;62.40;97673.38;5032384;28;19929;-76
2021/10/22 04:57:32;;;;;;;;;;;;;;;12.23;62.55;97677.59;5016022;28;19975;-75
2021/10/22 04:59:57;;;;;;;;;;;;;;;12.24;62.24;97681.03;5016931;28;19956;-75
2021/10/22 05:02:23;;;;;;;;;;;;;;;12.23;62.41;97682.81;5000272;28;20035;-77
2021/10/22 05:04:49;;;;;;;;;;;;;;;12.22;62.50;97681.13;5016713;28;19921;-77
2021/10/22 05:07:14;;;;;;;;;;;;;;;12.20;62.26;97689.00;5015388;28;19975;-76
2021/10/22 05:09:40;;;;;;;;;;;;;;;12.18;62.52;97684.81;5017056;28;19979;-77
2021/10/22 05:12:06;;;;;;;;;;;;;;;12.15;62.13;97685.78;4998191;28;19987;-77
2021/10/22 05:14:32;;;;;;;;;;;;;;;12.11;62.50;97693.81;5032007;28;19929;-76
2021/10/22 05:16:58;;;;;;;;;;;;;;;12.13;62.60;97689.38;5015675;28;19921;-77
2021/10/22 05:19:23;;;;;;;;;;;;;;;13.03;63.23;97697.94;4998066;28;19928;-76
2021/10/22 05:21:49;;;;;;;;;;;;;;;14.04;62.34;97680.28;4999272;28;19928;-76
2021/10/22 05:24:14;;;;;;;;;;;;;;;15.18;61.48;97682.41;5019089;28;19925;-77
2021/10/22 05:26:40;;;;;;;;;;;;;;;16.17;59.83;97683.22;5015847;28;19971;-76
2021/10/22 05:29:05;;;;;;;;;;;;;;;16.95;58.76;97689.41;4982953;28;20023;-77
2021/10/22 05:31:31;;;;;;;;;;;;;;;17.76;56.89;97669.72;4998175;28;19929;-77
2021/10/22 05:33:56;;;;;;;;;;;;;;;17.97;55.63;97666.53;4999373;28;19937;-77
2021/10/22 05:36:23;;;;;;;;;;;;;;;17.54;54.78;97667.81;5013865;28;19925;-77
2021/10/22 05:38:51;;;;;;;;;;;;;;;17.48;55.37;97684.03;5014660;28;19928;-76
2021/10/22 05:41:16;;;;;;;;;;;;;;;17.30;54.41;97675.66;5015038;28;19921;-77
2021/10/22 05:43:42;;;;;;;;;;;;;;;17.16;54.89;97693.22;5015332;28;19924;-76
2021/10/22 05:46:07;;;;;;;;;;;;;;;16.76;54.56;97690.69;5015495;28;19921;-77
2021/10/22 05:48:33;;;;;;;;;;;;;;;16.23;54.94;97688.09;4998762;28;19921;-77
2021/10/22 05:51:00;;;;;;;;;;;;;;;15.79;54.95;97697.84;5015175;28;19986;-77
2021/10/22 05:53:25;;;;;;;;;;;;;;;15.69;56.22;97697.59;5014124;28;19925;-78
2021/10/22 05:55:51;;;;;;;;;;;;;;;16.61;55.58;97691.72;5013998;28;19928;-76
2021/10/22 05:58:17;;;;;;;;;;;;;;;16.50;54.74;97700.31;5014709;28;20404;-80
2021/10/22 06:00:43;;;;;;;;;;;;;;;16.42;54.68;97700.84;5014830;28;20011;-76
2021/10/22 06:03:09;;;;;;;;;;;;;;;16.22;54.46;97710.84;5015156;28;19921;-77
2021/10/22 06:05:37;;;;;;;;;;;;;;;15.98;54.38;97723.78;5012442;28;20444;-76
2021/10/22 06:08:02;;;;;;;;;;;;;;;15.59;54.65;97720.91;5016562;28;20652;-77
2021/10/22 06:10:28;;;;;;;;;;;;;;;15.21;54.85;97725.00;5017023;28;19932;-78
2021/10/22 06:12:55;;;;;;;;;;;;;;;14.98;55.52;97717.69;5015094;28;20383;-76
2021/10/22 06:15:20;;;;;;;;;;;;;;;15.30;56.14;97725.34;5015528;28;19947;-76
2021/10/22 06:17:46;;;;;;;;;;;;;;;16.38;55.71;97720.34;5015116;28;19921;-75
2021/10/22 06:20:14;;;;;;;;;;;;;;;16.59;53.94;97722.50;5032713;28;19961;-75
2021/10/22 06:25:27;;;;;;;;;;;;;;;18.27;53.01;97727.56;5002183;28;19921;-76
2021/10/22 06:27:53;;;;;;;;;;;;;;;19.17;52.25;97719.06;5015602;28;19983;-77
2021/10/22 06:30:19;;;;;;;;;;;;;;;20.47;48.99;97719.34;5029079;28;20035;-76
2021/10/22 06:32:45;;;;;;;;;;;;;;;21.64;48.53;97725.44;5015324;28;21124;-75
2021/10/22 06:35:11;;;;;;;;;;;;;;;22.56;47.81;97715.56;5015931;28;19929;-75
2021/10/22 06:37:36;;;;;;;;;;;;;;;23.50;46.20;97710.47;5030327;28;19922;-76
2021/10/22 06:40:02;;;;;;;;;;;;;;;24.21;46.23;97711.59;5015043;28;19995;-76
2021/10/22 06:42:28;;;;;;;;;;;;;;;25.01;44.38;97713.41;5014850;28;19921;-76
2021/10/22 06:44:53;;;;;;;;;;;;;;;25.26;41.42;97708.25;5013495;28;19921;-74
2021/10/22 06:47:21;;;;;;;;;;;;;;;24.18;41.48;97712.75;5013668;28;21324;-76
2021/10/22 06:49:47;;;;;;;;;;;;;;;23.69;41.75;97721.00;5014774;28;20267;-77
2021/10/22 06:52:13;;;;;;;;;;;;;;;24.06;41.98;97725.41;5016181;28;19922;-78
2021/10/22 06:54:38;;;;;;;;;;;;;;;23.56;41.33;97731.09;5014952;28;19921;-75
2021/10/22 06:57:04;;;;;;;;;;;;;;;22.33;42.68;97736.19;5009075;28;19922;-78
2021/10/22 06:59:29;;;;;;;;;;;;;;;21.52;43.59;97753.78;5013854;28;20345;-75
2021/10/22 07:01:55;;;;;;;;;;;;;;;22.67;43.71;97743.72;5018599;28;20029;-76
2021/10/22 07:04:20;;;;;;;;;;;;;;;24.24;41.12;97732.53;5014471;28;19920;-75
2021/10/22 07:09:30;;;;;;;;;;;;;;;21.71;40.52;97744.28;5035356;28;19928;-74
2021/10/22 07:11:56;;;;;;;;;;;;;;;20.28;41.62;97749.06;5018436;28;20309;-72
2021/10/22 07:14:22;;;;;;;;;;;;;;;19.16;42.68;97750.84;5019308;28;20075;-79
2021/10/22 07:16:47;;;;;;;;;;;;;;;18.73;43.40;97760.16;5019109;28;19928;-79
2021/10/22 07:19:13;;;;;;;;;;;;;;;19.64;43.46;97758.50;5019655;28;19929;-73
2021/10/22 07:21:47;;;;;;;;;;;;;;;19.16;42.83;97772.75;5014805;28;19921;-76
2021/10/22 07:24:18;;;;;;;;;;;;;;;18.39;43.36;97779.31;5017118;28;19928;-73
2021/10/22 07:26:44;;;;;;;;;;;;;;;17.80;43.20;97794.00;5017532;28;19925;-75
2021/10/22 07:29:09;;;;;;;;;;;;;;;17.32;44.04;97810.44;5034329;28;20421;-75
2021/10/22 07:31:35;;;;;;;;;;;;;;;16.85;43.85;97797.75;5018696;28;19931;-75
2021/10/22 07:34:00;;;;;;;;;;;;;;;16.68;44.75;97793.63;5018840;28;19921;-77
2021/10/22 07:36:26;;;;;;;;;;;;;;;16.98;45.35;97808.31;5033613;28;19925;-75
2021/10/22 07:38:51;;;;;;;;;;;;;;;18.77;43.94;97807.22;5003495;28;19925;-79
2021/10/22 07:41:17;;;;;;;;;;;;;;;20.62;43.21;97796.47;5018590;28;19928;-77
2021/10/22 07:43:43;;;;;;;;;;;;;;;22.10;40.32;97806.09;5017575;28;19987;-74
2021/10/22 07:46:10;;;;;;;;;;;;;;;23.44;38.22;97778.22;5020066;28;19921;-76
2021/10/22 07:48:35;;;;;;;;;;;;;;;24.50;37.05;97784.94;5033719;28;19933;-77
2021/10/22 07:51:01;;;;;;;;;;;;;;;24.98;35.26;97779.41;5035198;28;19925;-75
2021/10/22 07:53:27;;;;;;;;;;;;;;;25.31;34.34;97785.78;5019747;28;19921;-75
2021/10/22 07:55:52;;;;;;;;;;;;;;;25.77;33.70;97787.38;5018751;28;19917;-74
2021/10/22 07:58:18;;;;;;;;;;;;;;;26.48;32.98;97771.13;5017506;28;20266;-73
2021/10/22 08:00:44;;;;;;;;;;;;;;;27.01;32.50;97775.16;5019566;28;19922;-76
2021/10/22 08:03:10;;;;;;;;;;;;;;;27.05;31.61;97765.81;5024741;28;19975;-73
2021/10/22 08:05:35;;;;;;;;;;;;;;;27.64;31.58;97787.91;5023517;28;19925;-74
2021/10/22 08:08:02;;;;;;;;;;;;;;;27.98;30.08;97794.78;5024615;28;19947;-76
2021/10/22 08:10:27;;;;;;;;;;;;;;;28.21;31.08;97781.50;5025164;28;20300;-72
2021/10/22 08:12:53;;;;;;;;;;;;;;;28.93;30.45;97776.81;5025441;28;19921;-75
2021/10/22 08:15:18;;;;;;;;;;;;;;;29.39;29.60;97781.28;5006438;28;20005;-76
2021/10/22 08:17:44;;;;;;;;;;;;;;;29.19;28.73;97778.25;5023083;28;19926;-71
2021/10/22 08:20:12;;;;;;;;;;;;;;;29.46;29.47;97779.50;5020452;28;19928;-76
2021/10/22 08:22:40;;;;;;;;;;;;;;;29.52;28.38;97793.19;5038642;28;19925;-74
2021/10/22 08:25:10;;;;;;;;;;;;;;;29.69;28.49;97797.34;5026142;28;19996;-75
2021/10/22 08:27:37;;;;;;;;;;;;;;;29.87;28.34;97788.94;5023995;28;19988;-76
2021/10/22 08:30:03;;;;;;;;;;;;;;;30.12;27.40;97799.38;5036294;28;19925;-76
2021/10/22 08:32:29;;;;;;;;;;;;;;;29.67;26.44;97795.88;5035429;28;19921;-74
2021/10/22 08:34:55;;;;;;;;;;;;;;;27.91;27.44;97797.34;5030970;28;20674;-73
2021/10/22 08:37:22;;;;;;;;;;;;;;;26.54;28.00;97808.63;5036889;28;19917;-72
2021/10/22 08:39:48;;;;;;;;;;;;;;;25.68;29.08;97802.50;5031971;28;19981;-74
2021/10/22 08:42:14;;;;;;;;;;;;;;;24.52;29.25;97814.88;5025129;28;19960;-75
2021/10/22 08:44:41;;;;;;;;;;;;;;;23.48;30.81;97827.38;5012172;28;19928;-73
2021/10/22 08:47:07;;;;;;;;;;;;;;;22.66;31.57;97818.91;5022473;28;20356;-74
2021/10/22 08:49:33;;;;;;;;;;;;;;;21.55;31.82;97830.25;5014792;28;19921;-76
2021/10/22 08:51:59;;;;;;;;;;;;;;;20.97;33.15;97831.56;4999459;28;19921;-77
2021/10/22 08:54:25;;;;;;;;;;;;;;;20.46;33.49;97833.88;5017460;28;20366;-77
2021/10/22 08:56:51;;;;;;;;;;;;;;;19.84;33.87;97825.53;5017019;28;19929;-76
2021/10/22 08:59:17;;;;;;;;;;;;;;;19.85;35.13;97829.03;5017219;28;20265;-77
2021/10/22 09:02:02;;;;;;;;;;;;;;;21.99;34.29;97831.84;5017788;28;19996;-74
2021/10/22 09:04:32;;;;;;;;;;;;;;;23.61;31.61;97824.41;5020191;28;19921;-76
2021/10/22 09:06:58;;;;;;;;;;;;;;;22.67;30.84;97818.78;5017070;28;19921;-74
2021/10/22 09:09:23;;;;;;;;;;;;;;;21.27;32.13;97831.75;4999748;28;19925;-74
2021/10/22 09:11:49;;;;;;;;;;;;;;;20.34;33.35;97828.75;5000848;28;19947;-72
2021/10/22 09:14:18;;;;;;;;;;;;;;;19.61;34.28;97832.63;5017981;28;19927;-74
2021/10/22 09:16:50;;;;;;;;;;;;;;;18.92;34.59;97844.78;5001613;28;20660;-75
2021/10/22 09:22:30;;;;;;;;;;;;;;;17.88;35.34;97838.16;5014494;28;19975;-74
2021/10/22 09:25:06;;;;;;;;;;;;;;;17.29;36.35;97836.94;5015155;28;20028;-76
2021/10/22 09:27:40;;;;;;;;;;;;;;;16.93;36.95;97833.16;5015443;28;20585;-76
2021/10/22 09:30:29;;;;;;;;;;;;;;;16.65;36.97;97827.13;5016205;28;19931;-76
2021/10/22 09:33:00;;;;;;;;;;;;;;;16.40;37.79;97840.03;5015379;28;19925;-74
2021/10/22 09:35:34;;;;;;;;;;;;;;;16.20;38.36;97849.19;5014289;28;19933;-79
2021/10/22 09:38:21;;;;;;;;;;;;;;;16.05;38.46;97850.97;5031461;28;20401;-74
2021/10/22 09:40:54;;;;;;;;;;;;;;;15.90;38.78;97858.00;5016308;28;19932;-78
2021/10/22 09:43:22;;;;;;;;;;;;;;;15.75;39.07;97853.69;5017139;28;19921;-76
2021/10/22 09:45:48;;;;;;;;;;;;;;;15.60;39.48;97845.81;5016176;28;20369;-76
2021/10/22 09:48:26;;;;;;;;;;;;;;;15.44;39.71;97850.28;5017582;28;19933;-73
2021/10/22 09:50:53;;;;;;;;;;;;;;;15.29;40.15;97849.41;5016629;28;20388;-75
2021/10/22 09:53:23;;;;;;;;;;;;;;;15.28;40.31;97842.50;4998015;28;19925;-71
2021/10/22 09:55:59;;;;;;;;;;;;;;;15.27;40.32;97839.03;5017632;28;19983;-77
2021/10/22 09:58:25;;;;;;;;;;;;;;;15.24;40.66;97838.34;5015905;28;19925;-72
2021/10/22 10:01:04;;;;;;;;;;;;;;;15.36;40.80;97835.84;5016415;28;19944;-74
2021/10/22 10:03:29;;;;;;;;;;;;;;;15.48;40.80;97841.31;5015741;28;19921;-73
2021/10/22 10:05:55;;;;;;;;;;;;;;;15.54;40.63;97840.94;5016161;28;19933;-78
2021/10/22 10:08:21;;;;;;;;;;;;;;;15.61;41.05;97836.19;5014540;28;19945;-75
2021/10/22 10:10:54;;;;;;;;;;;;;;;15.73;40.89;97839.81;5030835;28;20424;-73
2021/10/22 10:13:20;;;;;;;;;;;;;;;15.75;40.92;97836.16;5015034;28;20057;-78
2021/10/22 10:15:45;;;;;;;;;;;;;;;15.76;40.98;97834.41;5015096;28;19921;-80
2021/10/22 10:18:16;;;;;;;;;;;;;;;15.72;40.65;97846.00;5014734;28;19921;-76
2021/10/22 10:20:43;;;;;;;;;;;;;;;15.62;40.84;97843.94;5014137;28;19959;-77
2021/10/22 10:23:09;;;;;;;;;;;;;;;15.54;40.59;97837.47;5015022;28;19975;-77
2021/10/22 10:25:34;;;;;;;;;;;;;;;15.45;40.86;97823.16;5016138;28;20035;-74
2021/10/22 10:28:00;;;;;;;;;;;;;;;15.49;40.71;97843.00;5015132;28;19978;-76
2021/10/22 10:30:33;;;;;;;;;;;;;;;15.61;40.04;97849.28;5015696;28;19925;-77
2021/10/22 10:33:07;;;;;;;;;;;;;;;15.55;39.84;97819.03;4998010;28;20419;-76
2021/10/22 10:35:40;;;;;;;;;;;;;;;15.41;39.80;97848.72;5006499;28;19944;-74
2021/10/22 10:38:11;;;;;;;;;;;;;;;15.31;39.89;97839.69;5014861;28;19925;-73
2021/10/22 10:40:37;;;;;;;;;;;;;;;15.22;39.55;97846.31;5016246;28;20306;-74
2021/10/22 10:43:06;;;;;;;;;;;;;;;15.13;39.28;97845.09;5019318;28;19926;-73
2021/10/22 10:45:32;;;;;;;;;;;;;;;15.12;39.74;97834.69;5018497;28;19984;-76
2021/10/22 10:48:06;;;;;;;;;;;;;;;14.96;39.62;97846.06;5017725;28;20042;-77
2021/10/22 10:50:40;;;;;;;;;;;;;;;14.79;39.67;97833.13;5019895;28;19925;-75
2021/10/22 10:53:06;;;;;;;;;;;;;;;14.66;39.88;97849.50;5018291;28;19926;-75
2021/10/22 10:55:35;;;;;;;;;;;;;;;14.68;39.84;97846.78;5001765;28;20336;-74
2021/10/22 10:58:12;;;;;;;;;;;;;;;14.69;40.00;97857.19;5001628;28;19921;-76
2021/10/22 11:00:38;;;;;;;;;;;;;;;14.60;39.78;97852.47;5017983;28;20499;-76
2021/10/22 11:03:04;;;;;;;;;;;;;;;14.57;39.97;97870.94;5019070;28;20028;-71
2021/10/22 11:08:25;;;;;;;;;;;;;;;14.33;40.07;97952.47;5015316;28;19932;-74
2021/10/22 11:11:26;;;;;;;;;;;;;;;13.93;40.64;97973.72;5015057;28;19989;-74
2021/10/22 11:13:54;;;;;;;;;;;;;;;12.69;42.90;98055.41;5012897;28;19927;-75
2021/10/22 11:16:48;;;;;;;;;;;;;;;11.92;44.91;98096.06;5017882;28;19921;-76
2021/10/22 11:19:26;;;;;;;;;;;;;;;11.40;46.87;98106.81;5004195;28;19928;-77
2021/10/22 11:21:57;;;;;;;;;;;;;;;10.97;48.32;98111.91;5017281;28;20304;-77
2021/10/22 11:24:31;;;;;;;;;;;;;;;10.63;49.31;98105.34;5033186;28;19926;-71
2021/10/22 11:26:57;;;;;;;;;;;;;;;10.54;49.93;98096.97;5017343;28;20019;-74
2021/10/22 11:29:23;;;;;;;;;;;;;;;10.49;50.49;98095.44;5017507;28;19929;-75
2021/10/22 11:31:49;;;;;;;;;;;;;;;10.43;50.97;98098.25;5002004;28;19947;-73
2021/10/22 11:34:17;;;;;;;;;;;;;;;10.37;51.56;98089.72;5022661;28;19928;-75
2021/10/22 11:36:53;;;;;;;;;;;;;;;10.36;51.69;98090.66;5018853;28;19925;-75
2021/10/22 11:39:24;;;;;;;;;;;;;;;10.39;51.95;98093.16;4999591;28;19922;-74
2021/10/22 11:42:00;;;;;;;;;;;;;;;10.37;52.28;98104.50;5000685;28;20014;-77
2021/10/22 11:44:27;;;;;;;;;;;;;;;10.27;51.88;98090.09;5033337;28;20019;-73
2021/10/22 11:46:53;;;;;;;;;;;;;;;10.20;52.85;98084.28;5016639;28;20028;-76
2021/10/22 11:49:29;;;;;;;;;;;;;;;10.28;52.56;98086.59;5017498;28;19976;-74
2021/10/22 11:51:56;;;;;;;;;;;;;;;10.36;52.80;98095.88;5000283;28;19983;-75
2021/10/22 11:54:40;;;;;;;;;;;;;;;10.19;52.69;98101.63;5019320;28;19922;-75
2021/10/22 11:57:17;;;;;;;;;;;;;;;9.98;53.43;98103.19;5033182;28;19920;-73
2021/10/22 11:59:53;;;;;;;;;;;;;;;9.82;53.84;98112.41;5015163;28;19979;-72
2021/10/22 12:02:23;;;;;;;;;;;;;;;9.74;54.11;98125.66;5016765;28;19921;-76
2021/10/22 12:04:59;;;;;;;;;;;;;;;9.69;54.74;98138.81;5014473;28;19932;-73
2021/10/22 12:07:26;;;;;;;;;;;;;;;9.70;55.18;98147.41;5015570;28;19936;-78
2021/10/22 12:09:59;;;;;;;;;;;;;;;9.60;55.43;98152.91;5001094;28;20005;-75
2021/10/22 12:12:36;;;;;;;;;;;;;;;9.61;55.58;98144.22;5018506;28;20472;-76
2021/10/22 12:15:04;;;;;;;;;;;;;;;9.60;55.92;98146.88;5007242;28;20000;-75
2021/10/22 12:17:30;;;;;;;;;;;;;;;9.60;56.30;98147.69;5016648;28;20684;-76
2021/10/22 12:20:05;;;;;;;;;;;;;;;9.53;56.50;98146.22;5018505;28;20018;-76
2021/10/22 12:22:37;;;;;;;;;;;;;;;9.46;56.76;98157.69;5014419;28;19925;-77
2021/10/22 12:25:06;;;;;;;;;;;;;;;9.39;56.63;98157.03;5016912;28;20019;-78
2021/10/22 12:27:33;;;;;;;;;;;;;;;9.34;57.16;98167.53;4998420;28;19925;-77
2021/10/22 12:29:59;;;;;;;;;;;;;;;9.26;57.55;98168.66;5014518;28;19921;-76
2021/10/22 12:32:39;;;;;;;;;;;;;;;9.30;57.57;98183.22;5012638;28;19927;-76
2021/10/22 12:35:17;;;;;;;;;;;;;;;9.43;57.74;98168.16;5013817;28;19932;-77
2021/10/22 12:37:44;;;;;;;;;;;;;;;9.52;58.04;98178.28;5028366;28;20017;-74
2021/10/22 12:40:13;;;;;;;;;;;;;;;9.57;58.00;98176.38;5032967;28;19926;-75
2021/10/22 12:42:39;;;;;;;;;;;;;;;9.59;57.92;98184.13;5029597;28;19921;-73
2021/10/22 12:45:18;;;;;;;;;;;;;;;9.58;58.26;98179.81;5015163;28;20020;-76
2021/10/22 12:47:45;;;;;;;;;;;;;;;9.60;58.14;98191.84;5006027;28;19931;-73
2021/10/22 12:50:11;;;;;;;;;;;;;;;9.54;58.29;98193.78;5015264;28;20342;-79
2021/10/22 12:52:38;;;;;;;;;;;;;;;9.53;58.23;98197.28;5011627;28;19968;-73
2021/10/22 12:55:04;;;;;;;;;;;;;;;9.53;58.16;98208.53;5016091;28;19927;-76
2021/10/22 12:57:29;;;;;;;;;;;;;;;9.58;58.15;98208.38;5016312;28;20434;-75
2021/10/22 13:00:16;;;;;;;;;;;;;;;9.56;58.18;98220.56;5013854;28;19921;-74
2021/10/22 13:02:42;;;;;;;;;;;;;;;9.54;58.38;98223.22;4999036;28;19928;-75
2021/10/22 13:05:10;;;;;;;;;;;;;;;9.48;58.67;98221.66;4988667;28;19921;-76